Terminal Aerodrome Forecast
Issued by NWS Cleveland, OH

Home | Current Version | Previous Version | Graphics & Text | Print | Product List | Glossary On
Versions: 1 2 3 4 5 6 7 8 9 10 11 12 13 14 15 16 17 18 19 20 21 22 23 24 25
000
FTUS41 KCLE 270533
TAFCLE
TAF
KCLE 270533Z 2706/2812 22008KT P6SM VCSH BKN040 OVC080
     FM271000 29010KT P6SM FEW025 SCT050
     FM271400 29012G18KT P6SM BKN050
     FM280200 23008KT P6SM SCT050=

USA.gov is the U.S. government's official web portal to all federal, state and local government web resources and services.